Colby, KS

1:29 AM CDT on April 24, 2017 (GMT -0500)
Shaltz

Weather History for KCBK - November, 2012

Change the Weather History Date:

Thursday, November 15, 2012

  Actual Average (KGLD) Record (KGLD)
Temperature  
Mean Temperature 44 °F -  
Max Temperature 57 °F 51 °F 79 °F (1963)
Min Temperature 30 °F 26 °F 5 °F (1955)
Degree Days  
Heating Degree Days 22    
Moisture  
Dew Point 28 °F    
Average Humidity 59    
Maximum Humidity 86    
Minimum Humidity 36    
Precipitation  
Precipitation 0.00 in - - ()
Sea Level Pressure  
Sea Level Pressure 30.29 in    
Wind  
Wind Speed 10 mph ()    
Max Wind Speed 17 mph    
Max Gust Speed 22 mph    
Visibility 10.0 miles    
Events      
Averages and records for this station are not official NWS values.
T = Trace of Precipitation, MM = Missing Value Source: Averaged Metar Reports

Daily Weather History Graph

Daily Weather History Graph

Search for Another Location

Airport or City:

Trip Planner

Search our weather history database for the weather conditions in past years. The results will help you decide how hot, cold, wet, or windy it might be!

Date:

Astronomy

Nov. 15, 2012 Rise Set
Actual Time 7:28 AM CST 5:28 PM CST
Civil Twilight 6:59 AM CST 5:57 PM CST
Nautical Twilight 6:27 AM CST 6:30 PM CST
Astronomical Twilight 5:55 AM CST 7:01 PM CST
Moon 9:25 AM CST (11/15) 7:22 PM CST (11/15)
Length of Visible Light 10h 57m
Length of Day
10h 00m
Waxing Crescent, 5% of the Moon is Illuminated
Nov 15
Waxing Crescent
Nov 20
First Quarter
Nov 28
Full
Dec 6
Last Quarter
Dec 13
New

Hourly Weather History & Observations

Time (CST) Temp. Windchill Dew Point Humidity Pressure Visibility Wind Dir Wind Speed Gust Speed Precip Events Conditions
12:15 AM 32.0 °F 26.4 °F 21.2 °F 64% 30.15 in 10.0 mi North 5.8 mph - N/A   Clear
12:35 AM 33.8 °F 25.8 °F 23.0 °F 65% 30.15 in 10.0 mi North 10.4 mph - N/A   Clear
12:55 AM 32.0 °F 25.6 °F 21.2 °F 64% 30.15 in 10.0 mi North 6.9 mph - N/A   Clear
1:15 AM 32.0 °F 23.6 °F 23.0 °F 69% 30.14 in 10.0 mi North 10.4 mph - N/A   Clear
1:35 AM 33.8 °F 27.0 °F 23.0 °F 65% 30.14 in 10.0 mi North 8.1 mph - N/A   Clear
1:55 AM 33.8 °F 26.4 °F 23.0 °F 65% 30.14 in 10.0 mi NNE 9.2 mph - N/A   Clear
2:15 AM 33.8 °F 27.0 °F 23.0 °F 65% 30.14 in 10.0 mi North 8.1 mph - N/A   Clear
2:35 AM 35.6 °F 31.7 °F 23.0 °F 60% 30.15 in 10.0 mi North 4.6 mph - N/A   Clear
2:55 AM 35.6 °F 28.0 °F 23.0 °F 60% 30.17 in 10.0 mi North 10.4 mph - N/A   Clear
3:15 AM 33.8 °F 25.8 °F 23.0 °F 65% 30.17 in 10.0 mi NNW 10.4 mph - N/A   Clear
3:55 AM 35.6 °F - 23.0 °F 60% 30.16 in 10.0 mi Calm Calm - N/A   Clear
4:15 AM 33.8 °F 24.8 °F 23.0 °F 65% 30.17 in 10.0 mi NNW 12.7 mph - N/A   Clear
4:35 AM 33.8 °F 24.8 °F 23.0 °F 65% 30.17 in 10.0 mi NW 12.7 mph - N/A   Clear
4:55 AM 35.6 °F 28.6 °F 23.0 °F 60% 30.18 in 10.0 mi NW 9.2 mph - N/A   Clear
5:15 AM 41.0 °F 32.8 °F 26.6 °F 57% 30.18 in 10.0 mi NNW 16.1 mph - N/A   Clear
5:35 AM 41.0 °F 32.5 °F 30.2 °F 65% 30.18 in 10.0 mi NNW 17.3 mph - N/A   Clear
5:55 AM 41.0 °F 32.5 °F 32.0 °F 70% 30.19 in 10.0 mi NW 17.3 mph - N/A   Clear
6:15 AM 41.0 °F 32.8 °F 32.0 °F 70% 30.19 in 10.0 mi NNW 16.1 mph - N/A   Clear
6:35 AM 41.0 °F 32.8 °F 32.0 °F 70% 30.20 in 10.0 mi NNW 16.1 mph - N/A   Clear
6:55 AM 41.0 °F 32.8 °F 32.0 °F 70% 30.20 in 10.0 mi NNW 16.1 mph - N/A   Clear
7:15 AM 42.8 °F 36.2 °F 32.0 °F 66% 30.22 in 10.0 mi NNW 12.7 mph - N/A   Clear
7:35 AM 41.0 °F 33.9 °F 32.0 °F 70% 30.23 in 10.0 mi NNW 12.7 mph - N/A   Clear
7:55 AM 41.0 °F 33.1 °F 32.0 °F 70% 30.25 in 10.0 mi NNW 15.0 mph - N/A   Clear
8:15 AM 41.0 °F 33.5 °F 32.0 °F 70% 30.26 in 10.0 mi NNW 13.8 mph - N/A   Clear
8:35 AM 42.8 °F 35.4 °F 32.0 °F 66% 30.27 in 10.0 mi NNW 15.0 mph 20.7 mph N/A   Scattered Clouds
8:55 AM 42.8 °F 34.8 °F 32.0 °F 66% 30.29 in 10.0 mi NNW 17.3 mph - N/A   Mostly Cloudy
9:15 AM 44.6 °F 38.1 °F 32.0 °F 61% 30.29 in 10.0 mi NNW 13.8 mph 20.7 mph N/A   Scattered Clouds
9:35 AM 44.6 °F 38.1 °F 32.0 °F 61% 30.30 in 10.0 mi North 13.8 mph - N/A   Clear
9:55 AM 44.6 °F 38.1 °F 32.0 °F 61% 30.31 in 10.0 mi North 13.8 mph - N/A   Clear
10:15 AM 46.4 °F 40.7 °F 32.0 °F 57% 30.32 in 10.0 mi North 12.7 mph - N/A   Clear
10:35 AM 46.4 °F 39.5 °F 32.0 °F 57% 30.34 in 10.0 mi North 17.3 mph - N/A   Clear
10:55 AM 48.2 °F - 32.0 °F 54% 30.34 in 10.0 mi North 16.1 mph 21.9 mph N/A   Clear
11:15 AM 50.0 °F - 32.0 °F 50% 30.34 in 10.0 mi North 16.1 mph - N/A   Clear
11:35 AM 51.8 °F - 32.0 °F 47% 30.34 in 10.0 mi NNE 17.3 mph 21.9 mph N/A   Clear
11:55 AM 53.6 °F - 32.0 °F 44% 30.33 in 10.0 mi North 15.0 mph - N/A   Clear
12:15 PM 53.6 °F - 32.0 °F 44% 30.33 in 10.0 mi NNE 17.3 mph 20.7 mph N/A   Clear
12:35 PM 55.4 °F - 32.0 °F 41% 30.32 in 10.0 mi North 16.1 mph - N/A   Clear
12:55 PM 55.4 °F - 32.0 °F 41% 30.32 in 10.0 mi NNE 16.1 mph - N/A   Clear
1:15 PM 57.2 °F - 32.0 °F 38% 30.32 in 10.0 mi NNE 13.8 mph - N/A   Clear
1:35 PM 55.4 °F - 32.0 °F 41% 30.31 in 10.0 mi NNE 13.8 mph 19.6 mph N/A   Clear
1:55 PM 57.2 °F - 32.0 °F 38% 30.31 in 10.0 mi NNE 16.1 mph 21.9 mph N/A   Clear
2:15 PM 57.2 °F - 32.0 °F 38% 30.30 in 10.0 mi NNE 15.0 mph 20.7 mph N/A   Clear
2:35 PM 57.2 °F - 32.0 °F 38% 30.30 in 10.0 mi NE 15.0 mph 18.4 mph N/A   Clear
2:55 PM 57.2 °F - 32.0 °F 38% 30.31 in 10.0 mi NE 10.4 mph - N/A   Clear
3:15 PM 57.2 °F - 30.2 °F 36% 30.31 in 10.0 mi NE 10.4 mph - N/A   Clear
3:35 PM 57.2 °F - 30.2 °F 36% 30.31 in 10.0 mi NNE 12.7 mph 18.4 mph N/A   Clear
3:55 PM 55.4 °F - 30.2 °F 38% 30.32 in 10.0 mi NE 12.7 mph - N/A   Clear
4:15 PM 55.4 °F - 30.2 °F 38% 30.32 in 10.0 mi ENE 10.4 mph - N/A   Clear
4:35 PM 55.4 °F - 30.2 °F 38% 30.33 in 10.0 mi ENE 10.4 mph - N/A   Clear
4:55 PM 53.6 °F - 30.2 °F 41% 30.34 in 10.0 mi ENE 6.9 mph - N/A   Clear
5:15 PM 50.0 °F - 28.4 °F 43% 30.34 in 10.0 mi ENE 8.1 mph - N/A   Clear
5:35 PM 46.4 °F 42.4 °F 28.4 °F 50% 30.35 in 10.0 mi NE 8.1 mph - N/A   Clear
5:55 PM 44.6 °F 39.7 °F 26.6 °F 49% 30.36 in 10.0 mi NE 9.2 mph - N/A   Clear
6:15 PM 42.8 °F 37.0 °F 26.6 °F 53% 30.36 in 10.0 mi ENE 10.4 mph - N/A   Clear
6:35 PM 41.0 °F 35.2 °F 26.6 °F 57% 30.37 in 10.0 mi NE 9.2 mph - N/A   Clear
6:55 PM 39.2 °F 32.5 °F 24.8 °F 56% 30.38 in 10.0 mi ENE 10.4 mph - N/A   Clear
7:35 PM 35.6 °F 28.0 °F 24.8 °F 65% 30.38 in 10.0 mi ENE 10.4 mph - N/A   Clear
7:55 PM 35.6 °F 28.0 °F 24.8 °F 65% 30.38 in 10.0 mi ENE 10.4 mph - N/A   Clear
8:15 PM 35.6 °F 28.6 °F 24.8 °F 65% 30.38 in 10.0 mi East 9.2 mph - N/A   Clear
8:35 PM 33.8 °F 27.0 °F 24.8 °F 70% 30.38 in 10.0 mi East 8.1 mph - N/A   Clear
8:55 PM 33.8 °F 27.7 °F 24.8 °F 70% 30.39 in 10.0 mi East 6.9 mph - N/A   Clear
9:15 PM 33.8 °F 29.6 °F 26.6 °F 75% 30.40 in 10.0 mi ESE 4.6 mph - N/A   Clear
9:35 PM 35.6 °F - 26.6 °F 70% 30.40 in 10.0 mi Calm Calm - N/A   Clear
9:55 PM 35.6 °F 32.8 °F 28.4 °F 75% 30.40 in 10.0 mi SE 3.5 mph - N/A   Clear
10:15 PM 35.6 °F 32.8 °F 28.4 °F 75% 30.40 in 10.0 mi SE 3.5 mph - N/A   Clear
10:35 PM 37.4 °F 34.9 °F 30.2 °F 75% 30.41 in 10.0 mi SE 3.5 mph - N/A   Clear
10:55 PM 37.4 °F 34.9 °F 30.2 °F 75% 30.41 in 10.0 mi South 3.5 mph - N/A   Clear
11:15 PM 32.0 °F 24.8 °F 24.8 °F 75% 30.41 in 10.0 mi SW 8.1 mph - N/A   Clear
11:35 PM 30.2 °F - 26.6 °F 86% 30.41 in 10.0 mi Calm Calm - N/A   Clear
11:55 PM 35.6 °F - 30.2 °F 81% 30.41 in 10.0 mi Calm Calm - N/A   Clear